createdAt,value
2022-12-28T00:01:57.564Z,2.70
2022-12-28T00:04:24.217Z,2.70
2022-12-28T00:06:53.391Z,2.70
2022-12-28T00:09:20.105Z,2.70
2022-12-28T00:11:46.958Z,2.70
2022-12-28T00:14:16.475Z,2.70
2022-12-28T00:16:43.801Z,2.70
2022-12-28T00:19:16.066Z,2.70
2022-12-28T00:21:44.166Z,2.70
2022-12-28T00:24:22.660Z,2.70
2022-12-28T00:26:50.849Z,2.70
2022-12-28T00:29:20.141Z,2.70
2022-12-28T00:31:46.861Z,2.70
2022-12-28T00:34:14.191Z,2.70
2022-12-28T00:37:10.533Z,2.60
2022-12-28T00:39:30.188Z,2.60
2022-12-28T00:41:56.837Z,2.60
2022-12-28T00:44:25.705Z,2.70
2022-12-28T00:46:52.550Z,2.60
2022-12-28T00:49:21.573Z,2.70
2022-12-28T00:51:48.223Z,2.70
2022-12-28T00:54:14.906Z,2.70
2022-12-28T00:56:45.431Z,2.60
2022-12-28T00:59:15.053Z,2.60
2022-12-28T01:01:41.848Z,2.60
2022-12-28T01:04:11.207Z,2.60
2022-12-28T01:06:40.352Z,2.60
2022-12-28T01:09:09.349Z,2.60
2022-12-28T01:11:38.243Z,2.60
2022-12-28T01:14:04.901Z,2.50
2022-12-28T01:16:35.080Z,2.60
2022-12-28T01:19:05.736Z,2.60
2022-12-28T01:21:34.513Z,2.60
2022-12-28T01:24:03.736Z,2.60
2022-12-28T01:26:30.537Z,2.60
2022-12-28T01:28:58.687Z,2.60
2022-12-28T01:31:26.140Z,2.60
2022-12-28T01:33:53.968Z,2.50
2022-12-28T01:36:23.630Z,2.60
2022-12-28T01:39:00.494Z,2.50
2022-12-28T01:41:31.563Z,2.60
2022-12-28T01:43:58.133Z,2.60
2022-12-28T01:46:45.620Z,2.50
2022-12-28T01:49:18.682Z,2.50
2022-12-28T01:51:58.370Z,2.60
2022-12-28T01:54:27.508Z,2.60
2022-12-28T01:56:54.358Z,2.60
2022-12-28T01:59:24.604Z,2.60
2022-12-28T02:01:51.807Z,2.60
2022-12-28T02:04:18.587Z,2.60
2022-12-28T02:06:45.993Z,2.60
2022-12-28T02:09:19.427Z,2.60
2022-12-28T02:11:51.862Z,2.60
2022-12-28T02:14:20.078Z,2.60
2022-12-28T02:16:47.010Z,2.60
2022-12-28T02:19:18.467Z,2.60
2022-12-28T02:21:59.730Z,2.60
2022-12-28T02:24:38.185Z,2.60
2022-12-28T02:27:29.692Z,2.60
2022-12-28T02:30:05.993Z,2.70
2022-12-28T02:32:57.594Z,2.70
2022-12-28T02:35:49.240Z,2.70
2022-12-28T02:38:30.804Z,2.70
2022-12-28T02:41:09.467Z,2.70
2022-12-28T02:43:36.739Z,2.70
2022-12-28T02:46:52.665Z,2.70
2022-12-28T02:49:42.941Z,2.70
2022-12-28T02:52:45.565Z,2.70
2022-12-28T02:55:49.803Z,2.70
2022-12-28T02:58:22.347Z,2.70
2022-12-28T03:01:13.268Z,2.70
2022-12-28T03:04:06.250Z,2.70
2022-12-28T03:07:09.456Z,2.70
2022-12-28T03:10:02.469Z,2.70
2022-12-28T03:12:36.494Z,2.70
2022-12-28T03:15:11.550Z,2.70
2022-12-28T03:18:01.658Z,2.70
2022-12-28T03:20:49.844Z,2.70
2022-12-28T03:23:38.311Z,2.70
2022-12-28T03:26:28.494Z,2.70
2022-12-28T03:29:15.568Z,2.70
2022-12-28T03:31:45.152Z,2.70
2022-12-28T03:34:14.570Z,2.70
2022-12-28T03:37:13.260Z,2.70
2022-12-28T03:39:45.872Z,2.70
2022-12-28T03:42:34.935Z,2.70
2022-12-28T03:45:45.323Z,2.70
2022-12-28T03:48:12.460Z,2.70
2022-12-28T03:50:44.225Z,2.80
2022-12-28T03:53:14.028Z,2.80
2022-12-28T03:55:43.323Z,2.80
2022-12-28T03:58:12.455Z,2.80
2022-12-28T04:00:39.213Z,2.80
2022-12-28T04:03:05.964Z,2.80
2022-12-28T04:05:32.996Z,2.80
2022-12-28T04:08:01.835Z,2.80
2022-12-28T04:10:28.557Z,2.80
2022-12-28T04:12:56.781Z,2.80
2022-12-28T04:15:26.050Z,2.80
2022-12-28T04:17:52.763Z,2.80
2022-12-28T04:20:19.411Z,2.80
2022-12-28T04:22:46.042Z,2.80
2022-12-28T04:25:12.713Z,2.90
2022-12-28T04:27:39.377Z,2.90
2022-12-28T04:30:09.256Z,2.90
2022-12-28T04:32:38.443Z,2.90
2022-12-28T04:35:05.490Z,2.80
2022-12-28T04:37:32.271Z,2.80
2022-12-28T04:39:59.316Z,2.80
2022-12-28T04:42:26.441Z,2.80
2022-12-28T04:44:53.178Z,2.80
2022-12-28T04:47:19.885Z,2.70
2022-12-28T04:49:46.723Z,2.70
2022-12-28T04:52:15.538Z,2.70
2022-12-28T04:54:42.146Z,2.70
2022-12-28T04:57:08.816Z,2.70
2022-12-28T04:59:35.527Z,2.70
2022-12-28T05:02:02.325Z,5.00
2022-12-28T05:04:29.069Z,2.70
2022-12-28T05:06:58.008Z,2.70
2022-12-28T05:09:27.096Z,2.70
2022-12-28T05:11:53.942Z,2.70
2022-12-28T05:14:20.609Z,2.70
2022-12-28T05:16:51.286Z,2.70
2022-12-28T05:19:18.133Z,2.70
2022-12-28T05:21:44.901Z,2.70
2022-12-28T05:24:13.735Z,2.70
2022-12-28T05:26:40.465Z,2.60
2022-12-28T05:29:07.147Z,2.70
2022-12-28T05:31:36.143Z,2.70
2022-12-28T05:34:03.300Z,2.70
2022-12-28T05:36:33.764Z,2.70
2022-12-28T05:39:00.575Z,2.70
2022-12-28T05:41:28.711Z,2.70
2022-12-28T05:43:57.340Z,2.70
2022-12-28T05:46:30.035Z,2.80
2022-12-28T05:48:57.482Z,2.80
2022-12-28T05:51:26.888Z,2.80
2022-12-28T05:53:59.013Z,2.80
2022-12-28T05:56:28.554Z,2.80
2022-12-28T05:58:57.884Z,2.80
2022-12-28T06:01:30.157Z,2.80
2022-12-28T06:04:08.814Z,2.80
2022-12-28T06:06:36.078Z,2.80
2022-12-28T06:09:05.419Z,2.80
2022-12-28T06:11:32.556Z,2.80
2022-12-28T06:14:00.188Z,2.80
2022-12-28T06:16:31.759Z,2.80
2022-12-28T06:19:01.592Z,2.80
2022-12-28T06:21:31.378Z,2.80
2022-12-28T06:24:02.399Z,2.80
2022-12-28T06:26:33.467Z,2.80
2022-12-28T06:29:01.831Z,2.80
2022-12-28T06:31:34.648Z,2.80
2022-12-28T06:34:03.117Z,2.80
2022-12-28T06:36:33.124Z,2.80
2022-12-28T06:39:03.678Z,2.80
2022-12-28T06:41:30.481Z,2.80
2022-12-28T06:44:01.078Z,2.80
2022-12-28T06:46:31.865Z,2.80
2022-12-28T06:48:58.724Z,2.80
2022-12-28T06:51:30.819Z,2.80
2022-12-28T06:53:57.747Z,2.80
2022-12-28T06:56:30.917Z,2.80
2022-12-28T06:59:02.836Z,2.80
2022-12-28T07:01:36.475Z,2.80
2022-12-28T07:04:07.035Z,2.80
2022-12-28T07:06:39.865Z,2.80
2022-12-28T07:09:09.765Z,2.80
2022-12-28T07:11:38.950Z,2.80
2022-12-28T07:14:05.738Z,2.80
2022-12-28T07:18:59.748Z,2.80
2022-12-28T07:21:29.367Z,2.80
2022-12-28T07:24:00.884Z,2.80
2022-12-28T07:26:35.160Z,2.80
2022-12-28T07:29:05.283Z,2.80
2022-12-28T07:31:39.788Z,2.90
2022-12-28T07:34:14.903Z,2.90
2022-12-28T07:36:44.052Z,2.90
2022-12-28T07:39:13.413Z,2.90
2022-12-28T07:41:40.240Z,2.90
2022-12-28T07:44:07.323Z,2.90
2022-12-28T07:46:36.188Z,2.90
2022-12-28T07:49:06.127Z,3.00
2022-12-28T07:51:35.161Z,2.90
2022-12-28T07:54:02.380Z,2.50
2022-12-28T07:56:30.306Z,3.00
2022-12-28T07:59:02.299Z,3.00
2022-12-28T08:01:32.214Z,3.00
2022-12-28T08:04:01.834Z,3.10
2022-12-28T08:06:30.415Z,3.10
2022-12-28T08:09:01.884Z,3.10
2022-12-28T08:11:34.652Z,3.10
2022-12-28T08:14:04.800Z,3.20
2022-12-28T08:16:38.381Z,3.20
2022-12-28T08:19:05.770Z,3.20
2022-12-28T08:21:41.237Z,3.20
2022-12-28T08:24:12.745Z,3.20
2022-12-28T08:26:44.186Z,3.20
2022-12-28T08:29:16.995Z,3.30
2022-12-28T08:31:47.302Z,3.30
2022-12-28T08:34:20.607Z,3.30
2022-12-28T08:36:52.039Z,3.40
2022-12-28T08:39:18.704Z,3.40
2022-12-28T08:41:45.406Z,3.50
2022-12-28T08:44:12.050Z,3.60
2022-12-28T08:46:40.784Z,3.60
2022-12-28T08:49:09.853Z,3.60
2022-12-28T08:51:42.188Z,3.70
2022-12-28T08:54:13.877Z,3.70
2022-12-28T08:56:42.719Z,3.80
2022-12-28T08:59:10.859Z,3.90
2022-12-28T09:01:44.044Z,3.90
2022-12-28T09:04:18.476Z,4.00
2022-12-28T09:06:45.654Z,4.00
2022-12-28T09:09:17.339Z,4.10
2022-12-28T09:11:47.003Z,4.10
2022-12-28T09:14:22.047Z,4.20
2022-12-28T09:16:50.276Z,4.20
2022-12-28T09:19:16.976Z,4.30
2022-12-28T09:21:45.294Z,4.30
2022-12-28T09:24:13.407Z,4.30
2022-12-28T09:26:42.554Z,4.30
2022-12-28T09:29:14.330Z,4.40
2022-12-28T09:31:41.707Z,4.40
2022-12-28T09:36:59.798Z,4.50
2022-12-28T09:39:26.941Z,4.60
2022-12-28T09:42:12.082Z,5.90
2022-12-28T09:44:50.856Z,4.70
2022-12-28T09:47:34.018Z,4.80
2022-12-28T09:50:18.705Z,4.90
2022-12-28T09:52:51.071Z,5.00
2022-12-28T09:55:19.302Z,5.10
2022-12-28T09:57:49.692Z,5.20
2022-12-28T10:00:50.309Z,5.30
2022-12-28T10:03:20.734Z,5.30
2022-12-28T10:05:48.072Z,5.50
2022-12-28T10:08:19.539Z,5.50
2022-12-28T10:10:49.177Z,5.60
2022-12-28T10:16:18.938Z,5.80
2022-12-28T10:18:50.090Z,6.00
2022-12-28T10:21:25.416Z,6.00
2022-12-28T10:24:29.829Z,6.10
2022-12-28T10:26:49.686Z,6.20
2022-12-28T10:29:21.767Z,6.30
2022-12-28T10:32:10.541Z,6.30
2022-12-28T10:34:45.008Z,6.30
2022-12-28T10:37:19.042Z,6.40
2022-12-28T10:40:05.494Z,6.40
2022-12-28T10:42:42.593Z,6.40
2022-12-28T10:45:33.641Z,6.40
2022-12-28T10:48:01.878Z,6.50
2022-12-28T10:50:51.277Z,6.50
2022-12-28T10:53:20.258Z,6.60
2022-12-28T10:55:47.046Z,6.60
2022-12-28T10:58:33.824Z,6.60
2022-12-28T11:01:30.617Z,6.60
2022-12-28T11:03:57.440Z,6.70
2022-12-28T11:06:27.598Z,6.70
2022-12-28T11:09:13.064Z,6.70
2022-12-28T11:11:41.022Z,6.80
2022-12-28T11:14:33.957Z,7.00
2022-12-28T11:17:20.834Z,7.00
2022-12-28T11:19:51.985Z,7.20
2022-12-28T11:22:27.007Z,7.20
2022-12-28T11:24:58.510Z,7.20
2022-12-28T11:27:26.629Z,7.20
2022-12-28T11:29:58.095Z,7.30
2022-12-28T11:32:31.410Z,7.30
2022-12-28T11:34:58.592Z,7.40
2022-12-28T11:37:28.329Z,7.40
2022-12-28T11:39:58.903Z,7.60
2022-12-28T11:42:41.946Z,7.70
2022-12-28T11:45:53.399Z,7.80
2022-12-28T11:48:42.884Z,8.00
2022-12-28T11:51:20.906Z,8.10
2022-12-28T11:53:50.021Z,8.20
2022-12-28T11:56:22.441Z,8.20
2022-12-28T11:59:00.560Z,8.40
2022-12-28T12:01:44.743Z,8.50
2022-12-28T12:04:31.501Z,8.60
2022-12-28T12:07:04.029Z,8.60
2022-12-28T12:09:38.594Z,8.60
2022-12-28T12:12:17.845Z,8.60
2022-12-28T12:14:57.363Z,8.40
2022-12-28T12:17:29.599Z,8.40
2022-12-28T12:20:00.330Z,8.30
2022-12-28T12:22:42.488Z,8.40
2022-12-28T12:25:33.667Z,8.30
2022-12-28T12:28:34.323Z,8.20
2022-12-28T12:31:03.903Z,8.20
2022-12-28T12:33:38.074Z,8.20
2022-12-28T12:36:19.859Z,8.20
2022-12-28T12:38:52.341Z,8.20
2022-12-28T12:41:49.333Z,8.10
2022-12-28T12:44:19.060Z,8.00
2022-12-28T12:47:35.351Z,8.00
2022-12-28T12:50:33.497Z,8.00
2022-12-28T12:53:00.145Z,8.00
2022-12-28T12:55:56.873Z,8.00
2022-12-28T12:58:35.237Z,8.10
2022-12-28T13:01:22.849Z,8.10
2022-12-28T13:03:56.289Z,8.10
2022-12-28T13:06:26.247Z,8.10
2022-12-28T13:09:00.427Z,8.20
2022-12-28T13:11:31.438Z,8.20
2022-12-28T13:14:00.498Z,8.10
2022-12-28T13:16:32.611Z,8.20
2022-12-28T13:19:06.546Z,8.20
2022-12-28T13:21:45.489Z,8.10
2022-12-28T13:24:45.757Z,8.20
2022-12-28T13:27:19.421Z,8.10
2022-12-28T13:29:54.440Z,8.10
2022-12-28T13:32:37.736Z,8.00
2022-12-28T13:35:20.338Z,8.00
2022-12-28T13:38:13.225Z,7.90
2022-12-28T13:40:41.489Z,7.90
2022-12-28T13:43:32.117Z,7.90
2022-12-28T13:46:07.924Z,7.90
2022-12-28T13:48:40.683Z,7.90
2022-12-28T13:51:13.616Z,8.50
2022-12-28T13:53:45.701Z,7.90
2022-12-28T13:56:15.572Z,8.20
2022-12-28T13:59:10.814Z,7.90
2022-12-28T14:01:42.096Z,7.90
2022-12-28T14:07:01.816Z,9.00
2022-12-28T14:09:29.143Z,7.90
2022-12-28T14:11:57.197Z,7.90
2022-12-28T14:14:24.500Z,7.90
2022-12-28T14:16:53.881Z,7.90
2022-12-28T14:19:20.632Z,7.90
2022-12-28T14:21:47.385Z,7.90
2022-12-28T14:24:16.386Z,7.80
2022-12-28T14:26:57.782Z,7.90
2022-12-28T14:29:30.911Z,7.80
2022-12-28T14:31:59.873Z,7.80
2022-12-28T14:34:34.453Z,7.80
2022-12-28T14:37:04.269Z,7.80
2022-12-28T14:39:38.010Z,7.80
2022-12-28T14:42:06.434Z,7.80
2022-12-28T14:44:37.844Z,7.70
2022-12-28T14:47:36.526Z,7.70
2022-12-28T14:50:17.725Z,7.70
2022-12-28T14:52:47.511Z,7.70
2022-12-28T14:55:31.754Z,7.70
2022-12-28T14:58:03.513Z,7.70
2022-12-28T15:00:33.636Z,8.20
2022-12-28T15:03:19.814Z,9.40
2022-12-28T15:05:50.396Z,9.40
2022-12-28T15:08:20.180Z,9.10
2022-12-28T15:10:55.724Z,8.70
2022-12-28T15:13:23.059Z,8.40
2022-12-28T15:15:57.648Z,8.20
2022-12-28T15:18:25.069Z,8.10
2022-12-28T15:20:54.998Z,8.00
2022-12-28T15:23:21.735Z,7.90
2022-12-28T15:25:48.959Z,7.80
2022-12-28T15:28:17.924Z,7.60
2022-12-28T15:30:44.954Z,7.50
2022-12-28T15:33:12.325Z,7.50
2022-12-28T15:35:41.211Z,7.40
2022-12-28T15:38:07.960Z,7.30
2022-12-28T15:40:38.558Z,7.30
2022-12-28T15:43:07.401Z,7.20
2022-12-28T15:45:34.103Z,7.20
2022-12-28T15:48:03.348Z,7.10
2022-12-28T15:50:30.121Z,7.10
2022-12-28T15:52:56.858Z,7.00
2022-12-28T15:55:23.491Z,6.90
2022-12-28T15:57:50.149Z,6.80
2022-12-28T16:00:18.960Z,6.80
2022-12-28T16:02:48.035Z,6.70
2022-12-28T16:05:17.278Z,6.70
2022-12-28T16:07:48.700Z,6.70
2022-12-28T16:10:15.751Z,6.60
2022-12-28T16:12:42.423Z,6.60
2022-12-28T16:15:09.530Z,6.50
2022-12-28T16:17:43.317Z,6.60
2022-12-28T16:20:17.320Z,6.50
2022-12-28T16:22:44.007Z,6.50
2022-12-28T16:25:13.230Z,6.50
2022-12-28T16:27:44.496Z,6.40
2022-12-28T16:30:11.866Z,6.40
2022-12-28T16:32:38.522Z,6.40
2022-12-28T16:35:08.265Z,6.40
2022-12-28T16:37:35.076Z,6.40
2022-12-28T16:40:01.967Z,6.30
2022-12-28T16:42:32.077Z,6.30
2022-12-28T16:45:01.023Z,6.30
2022-12-28T16:47:32.581Z,6.30
2022-12-28T16:49:59.256Z,6.30
2022-12-28T16:52:28.154Z,6.30
2022-12-28T16:54:57.738Z,6.20
2022-12-28T16:57:24.377Z,6.20
2022-12-28T16:59:51.122Z,6.10
2022-12-28T17:02:17.987Z,6.10
2022-12-28T17:04:44.773Z,6.00
2022-12-28T17:07:13.632Z,6.00
2022-12-28T17:09:44.062Z,5.90
2022-12-28T17:12:15.861Z,5.90
2022-12-28T17:14:42.474Z,5.90
2022-12-28T17:17:11.683Z,5.90
2022-12-28T17:19:38.467Z,5.80
2022-12-28T17:22:05.640Z,5.80
2022-12-28T17:24:34.549Z,5.80
2022-12-28T17:27:07.244Z,5.80
2022-12-28T17:29:37.031Z,5.70
2022-12-28T17:32:05.270Z,5.70
2022-12-28T17:34:32.192Z,5.60
2022-12-28T17:36:59.053Z,5.60
2022-12-28T17:39:25.735Z,5.60
2022-12-28T17:41:52.444Z,5.60
2022-12-28T17:44:21.483Z,5.50
2022-12-28T17:46:50.688Z,5.50
2022-12-28T17:49:17.781Z,5.50
2022-12-28T17:51:44.584Z,5.50
2022-12-28T17:54:13.235Z,5.50
2022-12-28T17:56:42.890Z,5.40
2022-12-28T17:59:14.414Z,5.40
2022-12-28T18:01:43.634Z,5.40
2022-12-28T18:04:12.728Z,5.30
2022-12-28T18:06:41.674Z,5.30
2022-12-28T18:09:12.782Z,5.30
2022-12-28T18:11:39.524Z,5.20
2022-12-28T18:14:08.611Z,5.20
2022-12-28T18:16:37.834Z,5.20
2022-12-28T18:19:04.676Z,5.20
2022-12-28T18:21:31.326Z,5.20
2022-12-28T18:23:57.961Z,5.20
2022-12-28T18:26:26.342Z,5.10
2022-12-28T18:28:54.768Z,5.10
2022-12-28T18:31:24.526Z,5.10
2022-12-28T18:34:01.785Z,5.10
2022-12-28T18:36:28.826Z,5.10
2022-12-28T18:38:57.676Z,5.10
2022-12-28T18:41:27.677Z,5.00
2022-12-28T18:43:59.570Z,5.00
2022-12-28T18:46:26.325Z,5.00
2022-12-28T18:48:56.596Z,5.00
2022-12-28T18:51:25.972Z,4.90
2022-12-28T18:53:55.210Z,4.90
2022-12-28T18:56:24.322Z,4.90
2022-12-28T18:58:53.384Z,4.90
2022-12-28T19:04:20.462Z,4.90
2022-12-28T19:06:47.588Z,4.80
2022-12-28T19:09:14.590Z,4.80
2022-12-28T19:11:46.167Z,4.70
2022-12-28T19:14:14.636Z,4.70
2022-12-28T19:16:41.706Z,4.70
2022-12-28T19:19:08.460Z,4.60
2022-12-28T19:21:41.440Z,4.80
2022-12-28T19:24:19.445Z,4.50
2022-12-28T19:26:47.051Z,4.50
2022-12-28T19:29:15.648Z,4.50
2022-12-28T19:31:42.793Z,4.50
2022-12-28T19:34:14.229Z,4.50
2022-12-28T19:36:43.191Z,4.50
2022-12-28T19:39:11.236Z,4.50
2022-12-28T19:41:38.412Z,4.50
2022-12-28T19:44:05.334Z,4.50
2022-12-28T19:46:32.627Z,4.40
2022-12-28T19:49:06.127Z,4.40
2022-12-28T19:51:35.245Z,4.40
2022-12-28T19:54:02.680Z,4.40
2022-12-28T19:56:29.782Z,4.40
2022-12-28T19:59:04.994Z,4.40
2022-12-28T20:01:36.165Z,4.30
2022-12-28T20:04:08.756Z,4.30
2022-12-28T20:06:39.504Z,4.30
2022-12-28T20:09:06.422Z,4.30
2022-12-28T20:11:33.124Z,4.50
2022-12-28T20:14:04.149Z,4.30
2022-12-28T20:16:37.887Z,4.30
2022-12-28T20:19:08.726Z,4.30
2022-12-28T20:21:42.063Z,4.30
2022-12-28T20:24:10.541Z,4.30
2022-12-28T20:26:37.366Z,4.30
2022-12-28T20:29:06.736Z,4.30
2022-12-28T20:31:33.528Z,4.30
2022-12-28T20:34:00.471Z,4.30
2022-12-28T20:36:28.814Z,4.30
2022-12-28T20:38:56.525Z,4.30
2022-12-28T20:41:47.406Z,4.20
2022-12-28T20:44:21.387Z,4.20
2022-12-28T20:46:48.190Z,4.20
2022-12-28T20:49:14.967Z,4.20
2022-12-28T20:51:42.667Z,4.20
2022-12-28T20:54:15.257Z,4.10
2022-12-28T20:56:42.280Z,4.10
2022-12-28T20:59:10.327Z,4.10
2022-12-28T21:01:37.623Z,4.10
2022-12-28T21:04:05.405Z,4.10
2022-12-28T21:06:37.302Z,4.10
2022-12-28T21:09:06.575Z,4.10
2022-12-28T21:11:33.456Z,4.10
2022-12-28T21:14:00.686Z,4.10
2022-12-28T21:16:31.985Z,4.00
2022-12-28T21:19:01.030Z,4.10
2022-12-28T21:21:27.715Z,4.00
2022-12-28T21:23:54.437Z,4.00
2022-12-28T21:26:21.336Z,4.00
2022-12-28T21:28:48.462Z,4.00
2022-12-28T21:31:17.771Z,4.00
2022-12-28T21:33:44.634Z,4.00
2022-12-28T21:36:16.945Z,4.00
2022-12-28T21:38:45.092Z,4.00
2022-12-28T21:41:37.463Z,3.90
2022-12-28T21:44:06.396Z,4.00
2022-12-28T21:46:34.399Z,3.90
2022-12-28T21:49:03.387Z,3.90
2022-12-28T21:51:32.533Z,3.90
2022-12-28T21:54:05.982Z,3.90
2022-12-28T21:56:36.110Z,3.90
2022-12-28T21:59:03.190Z,3.90
2022-12-28T22:01:48.905Z,3.90
2022-12-28T22:04:36.287Z,3.90
2022-12-28T22:07:04.011Z,3.90
2022-12-28T22:09:49.378Z,3.90
2022-12-28T22:12:34.511Z,3.90
2022-12-28T22:15:33.097Z,3.90
2022-12-28T22:18:08.503Z,3.90
2022-12-28T22:20:37.780Z,3.90
2022-12-28T22:23:06.173Z,3.90
2022-12-28T22:25:33.474Z,3.80
2022-12-28T22:28:02.409Z,3.80
2022-12-28T22:30:30.976Z,3.80
2022-12-28T22:32:58.089Z,3.80
2022-12-28T22:35:24.819Z,3.80
2022-12-28T22:37:51.669Z,3.80
2022-12-28T22:40:23.180Z,3.80
2022-12-28T22:42:50.773Z,3.90
2022-12-28T22:45:23.397Z,3.80
2022-12-28T22:47:59.028Z,3.80
2022-12-28T22:50:27.571Z,3.80
2022-12-28T22:52:58.388Z,3.80
2022-12-28T22:55:25.151Z,3.90
2022-12-28T22:57:51.846Z,3.90
2022-12-28T23:00:20.993Z,3.90
2022-12-28T23:02:47.876Z,3.90
2022-12-28T23:05:14.745Z,3.90
2022-12-28T23:07:43.684Z,3.90
2022-12-28T23:10:10.563Z,3.90
2022-12-28T23:12:37.572Z,3.90
2022-12-28T23:15:19.647Z,4.00
2022-12-28T23:17:48.860Z,3.90
2022-12-28T23:20:48.691Z,3.90
2022-12-28T23:23:34.201Z,3.90
2022-12-28T23:26:19.698Z,3.90
2022-12-28T23:28:46.453Z,3.90
2022-12-28T23:31:13.195Z,4.00
2022-12-28T23:33:39.911Z,3.90
2022-12-28T23:36:07.032Z,4.00
2022-12-28T23:38:36.051Z,4.00
2022-12-28T23:41:25.135Z,4.00
2022-12-28T23:43:53.084Z,4.00
2022-12-28T23:46:19.810Z,4.00
2022-12-28T23:48:46.547Z,4.10
2022-12-28T23:51:15.172Z,4.10
2022-12-28T23:53:46.606Z,4.10
2022-12-28T23:56:15.846Z,4.10
2022-12-28T23:58:42.596Z,4.10
